Time;durP1;ratioP1;P1;durP2;ratioP2;P2;SDS_P1;SDS_P2;PMS_P1;PMS_P2;Temp;Humidity;BMP_temperature;BMP_pressure;BME280_temperature;BME280_humidity;BME280_pressure;Samples;Min_cycle;Max_cycle;Signal;HPM_P1;HPM_P2
2021/10/07 00:01:36;;;;;;;0.70;0.70;;;;;;;11.30;100.00;101969.91;6275762;28;20056;-79
2021/10/07 00:04:37;;;;;;;0.70;0.70;;;;;;;11.30;100.00;101967.28;6275207;28;20053;-80
2021/10/07 00:07:39;;;;;;;1.20;0.70;;;;;;;11.27;100.00;101981.44;6275190;28;20056;-80
2021/10/07 00:10:40;;;;;;;0.82;0.60;;;;;;;11.26;100.00;101973.56;6276040;28;20045;-79
2021/10/07 00:13:43;;;;;;;1.40;0.90;;;;;;;11.23;100.00;101971.06;6275565;28;20411;-80
2021/10/07 00:16:45;;;;;;;1.58;0.88;;;;;;;11.20;100.00;101965.91;6275554;28;20049;-80
2021/10/07 00:19:46;;;;;;;0.50;0.50;;;;;;;11.13;100.00;101968.78;6275765;28;20048;-79
2021/10/07 00:22:48;;;;;;;2.00;0.80;;;;;;;11.08;100.00;101983.00;6275865;28;20052;-80
2021/10/07 00:25:49;;;;;;;0.70;0.60;;;;;;;11.00;100.00;101977.16;6275505;28;20056;-79
2021/10/07 00:28:55;;;;;;;0.75;0.60;;;;;;;10.92;100.00;101983.53;6274510;28;20412;-78
2021/10/07 00:32:00;;;;;;;0.80;0.60;;;;;;;10.84;100.00;101977.69;6272477;28;20150;-78
2021/10/07 00:35:15;;;;;;;1.75;0.70;;;;;;;10.81;100.00;101979.56;6272624;28;20129;-78
2021/10/07 00:41:41;;;;;;;0.77;0.77;;;;;;;10.71;100.00;101986.03;6272423;28;20128;-78
2021/10/07 00:44:45;;;;;;;0.70;0.70;;;;;;;10.64;100.00;101986.25;6274134;28;20056;-79
2021/10/07 00:47:46;;;;;;;1.30;0.60;;;;;;;10.58;100.00;101985.59;6275397;28;20052;-79
2021/10/07 00:50:48;;;;;;;1.23;0.57;;;;;;;10.47;100.00;101982.47;6275649;28;20053;-80
2021/10/07 00:53:49;;;;;;;1.23;0.63;;;;;;;10.40;100.00;101990.56;6275538;28;20080;-80
2021/10/07 00:56:51;;;;;;;0.50;0.50;;;;;;;10.31;100.00;101996.13;6275163;28;20048;-79
2021/10/07 00:59:53;;;;;;;0.70;0.57;;;;;;;10.25;100.00;102004.19;6275520;28;20045;-79
2021/10/07 01:02:55;;;;;;;0.43;0.43;;;;;;;10.19;100.00;102008.75;6275526;28;20508;-80
2021/10/07 01:05:56;;;;;;;1.00;0.80;;;;;;;10.16;100.00;102013.19;6275693;28;20041;-79
2021/10/07 01:08:58;;;;;;;0.70;0.50;;;;;;;10.12;100.00;102010.69;6276617;28;20071;-81
2021/10/07 01:12:01;;;;;;;1.70;0.77;;;;;;;10.08;100.00;102016.94;6276278;28;20053;-81
2021/10/07 01:15:05;;;;;;;1.15;0.60;;;;;;;10.06;100.00;102024.03;6275630;28;20052;-81
2021/10/07 01:18:06;;;;;;;0.85;0.68;;;;;;;10.03;100.00;102026.75;6275914;28;20514;-79
2021/10/07 01:21:11;;;;;;;0.70;0.60;;;;;;;9.97;100.00;102034.81;6276401;28;20484;-79
2021/10/07 01:24:13;;;;;;;0.60;0.60;;;;;;;9.90;100.00;102032.38;6276478;28;20052;-79
2021/10/07 01:27:15;;;;;;;1.02;0.65;;;;;;;9.88;100.00;102044.69;6276696;28;20049;-80
2021/10/07 01:30:16;;;;;;;1.90;0.65;;;;;;;9.85;100.00;102043.91;6276911;28;20050;-79
2021/10/07 01:33:18;;;;;;;1.02;0.85;;;;;;;9.82;100.00;102042.25;6279911;28;20450;-80
2021/10/07 01:36:20;;;;;;;0.50;0.50;;;;;;;9.80;100.00;102040.56;6290458;28;20051;-79
2021/10/07 01:39:23;;;;;;;1.15;0.70;;;;;;;9.81;100.00;102048.41;6301134;28;20075;-78
2021/10/07 01:42:26;;;;;;;0.60;0.60;;;;;;;9.85;100.00;102049.16;6298797;28;20053;-81
2021/10/07 01:45:27;;;;;;;1.25;0.90;;;;;;;9.93;100.00;102054.19;6299422;28;20104;-81
2021/10/07 01:48:30;;;;;;;0.80;0.80;;;;;;;10.03;100.00;102056.47;6298088;28;20056;-81
2021/10/07 01:51:33;;;;;;;0.82;0.73;;;;;;;10.12;100.00;102058.84;6283338;28;20317;-81
2021/10/07 01:54:34;;;;;;;0.80;0.57;;;;;;;10.16;100.00;102064.84;6278791;28;20057;-80
2021/10/07 01:57:37;;;;;;;1.85;0.82;;;;;;;10.20;100.00;102065.63;6279305;28;20052;-81
2021/10/07 02:00:38;;;;;;;1.10;0.80;;;;;;;10.25;100.00;102063.75;6279805;28;20049;-81
2021/10/07 02:03:39;;;;;;;1.33;0.90;;;;;;;10.29;100.00;102068.00;6279633;28;20055;-79
2021/10/07 02:06:42;;;;;;;1.85;0.90;;;;;;;10.32;100.00;102079.28;6279801;28;20052;-81
2021/10/07 02:09:43;;;;;;;1.20;0.70;;;;;;;10.37;100.00;102084.41;6278795;28;20063;-80
2021/10/07 02:12:46;;;;;;;2.55;0.90;;;;;;;10.40;100.00;102082.56;6279611;28;20052;-79
2021/10/07 02:15:48;;;;;;;0.60;0.60;;;;;;;10.41;100.00;102089.50;6278200;28;20048;-81
2021/10/07 02:18:49;;;;;;;0.65;0.65;;;;;;;10.43;100.00;102088.59;6276848;28;20048;-80
2021/10/07 02:21:52;;;;;;;1.25;0.73;;;;;;;10.44;100.00;102098.19;6277096;28;20045;-81
2021/10/07 02:24:53;;;;;;;3.80;1.00;;;;;;;10.37;100.00;102100.16;6283318;28;20072;-81
2021/10/07 02:27:55;;;;;;;1.02;0.65;;;;;;;10.32;100.00;102100.31;6277068;28;20713;-81
2021/10/07 02:30:58;;;;;;;1.08;0.77;;;;;;;10.30;100.00;102110.00;6276169;28;20049;-80
2021/10/07 02:33:59;;;;;;;1.00;0.80;;;;;;;10.33;100.00;102109.06;6284842;28;20049;-81
2021/10/07 02:37:02;;;;;;;2.33;1.10;;;;;;;10.35;100.00;102107.22;6276109;28;20067;-80
2021/10/07 02:40:05;;;;;;;1.45;0.70;;;;;;;10.40;100.00;102116.72;6275699;28;20053;-80
2021/10/07 02:43:07;;;;;;;1.73;1.13;;;;;;;10.44;100.00;102114.81;6275233;28;20053;-81
2021/10/07 02:46:08;;;;;;;1.33;1.20;;;;;;;10.45;100.00;102111.31;6274974;28;20051;-80
2021/10/07 02:49:09;;;;;;;1.45;1.13;;;;;;;10.46;100.00;102115.66;6274556;28;20048;-80
2021/10/07 02:52:12;;;;;;;0.88;0.82;;;;;;;10.50;100.00;102125.16;6275165;28;20052;-80
2021/10/07 02:55:14;;;;;;;2.90;1.23;;;;;;;10.50;100.00;102125.16;6274605;28;20052;-81
2021/10/07 02:58:15;;;;;;;1.80;1.38;;;;;;;10.53;100.00;102137.34;6274967;28;20049;-81
2021/10/07 03:01:17;;;;;;;1.48;1.20;;;;;;;10.47;100.00;102141.03;6274779;28;20048;-80
2021/10/07 03:04:18;;;;;;;1.45;1.25;;;;;;;10.44;100.00;102146.38;6274723;28;20053;-79
2021/10/07 03:07:21;;;;;;;2.15;1.38;;;;;;;10.43;100.00;102143.78;6274663;28;20048;-80
2021/10/07 03:10:23;;;;;;;1.42;1.25;;;;;;;10.45;100.00;102142.84;6274672;28;20060;-81
2021/10/07 03:13:25;;;;;;;1.75;1.33;;;;;;;10.49;100.00;102149.75;6274876;28;20071;-80
2021/10/07 03:16:27;;;;;;;2.88;1.30;;;;;;;10.54;100.00;102153.09;6274486;28;20049;-79
2021/10/07 03:19:28;;;;;;;3.08;1.52;;;;;;;10.56;100.00;102155.66;6274382;28;20496;-81
2021/10/07 03:22:31;;;;;;;1.35;1.00;;;;;;;10.58;100.00;102161.72;6274289;28;20076;-81
2021/10/07 03:25:32;;;;;;;0.98;0.90;;;;;;;10.59;100.00;102164.31;6274185;28;20052;-80
2021/10/07 03:28:34;;;;;;;2.28;0.98;;;;;;;10.60;100.00;102167.81;6274011;28;20056;-81
2021/10/07 03:31:35;;;;;;;2.25;1.00;;;;;;;10.63;100.00;102172.97;6273655;28;20076;-80
2021/10/07 03:34:36;;;;;;;1.00;0.88;;;;;;;10.64;100.00;102177.31;6273919;28;20056;-80
2021/10/07 03:37:39;;;;;;;1.80;1.40;;;;;;;10.63;100.00;102173.84;6273827;28;20044;-80
2021/10/07 03:40:41;;;;;;;1.50;1.30;;;;;;;10.62;100.00;102184.38;6273804;28;20106;-81
2021/10/07 03:43:42;;;;;;;2.13;1.50;;;;;;;10.53;100.00;102180.25;6273947;28;20136;-80
2021/10/07 03:46:43;;;;;;;2.03;1.08;;;;;;;10.52;100.00;102185.56;6273930;28;20048;-80
2021/10/07 03:49:45;;;;;;;1.15;1.05;;;;;;;10.50;100.00;102185.63;6273807;28;20045;-80
2021/10/07 03:52:47;;;;;;;2.03;1.20;;;;;;;10.44;100.00;102192.81;6273523;28;20049;-81
2021/10/07 03:55:49;;;;;;;2.25;1.08;;;;;;;10.46;100.00;102196.28;6272304;28;20045;-80
2021/10/07 03:58:50;;;;;;;1.15;0.90;;;;;;;10.49;100.00;102206.69;6260400;28;20072;-80
2021/10/07 04:01:52;;;;;;;1.50;1.20;;;;;;;10.48;100.00;102212.84;6270109;28;20056;-81
2021/10/07 04:04:53;;;;;;;2.17;1.20;;;;;;;10.48;100.00;102221.59;6273102;28;20056;-80
2021/10/07 04:07:56;;;;;;;1.25;1.15;;;;;;;10.50;100.00;102224.19;6273311;28;20131;-80
2021/10/07 04:10:57;;;;;;;2.47;1.30;;;;;;;10.49;100.00;102236.47;6273450;28;20053;-81
2021/10/07 04:13:59;;;;;;;1.63;1.10;;;;;;;10.52;100.00;102233.75;6273050;28;20056;-80
2021/10/07 04:17:01;;;;;;;1.80;1.27;;;;;;;10.55;100.00;102233.66;6272950;28;20151;-79
2021/10/07 04:20:02;;;;;;;1.30;1.02;;;;;;;10.56;100.00;102242.41;6272849;28;20063;-81
2021/10/07 04:23:05;;;;;;;1.58;1.02;;;;;;;10.51;100.00;102242.53;6273364;28;20053;-80
2021/10/07 04:26:07;;;;;;;1.08;0.90;;;;;;;10.47;100.00;102254.03;6272551;28;20052;-81
2021/10/07 04:29:09;;;;;;;2.03;1.52;;;;;;;10.39;100.00;102259.50;6272993;28;20053;-80
2021/10/07 04:32:10;;;;;;;1.38;1.08;;;;;;;10.35;100.00;102254.38;6272460;28;20049;-80
2021/10/07 04:35:12;;;;;;;3.38;1.33;;;;;;;10.36;100.00;102259.63;6272549;28;20484;-80
2021/10/07 04:38:14;;;;;;;4.35;1.17;;;;;;;10.38;100.00;102262.19;6272670;28;20052;-79
2021/10/07 04:41:16;;;;;;;1.15;1.00;;;;;;;10.35;100.00;102260.50;6272970;28;20052;-80
2021/10/07 04:44:18;;;;;;;2.47;1.13;;;;;;;10.35;100.00;102260.50;6272413;28;20412;-81
2021/10/07 04:47:19;;;;;;;2.05;1.42;;;;;;;10.31;100.00;102260.63;6272301;28;20484;-81
2021/10/07 04:50:20;;;;;;;1.50;1.17;;;;;;;10.29;100.00;102271.19;6272726;28;20511;-82
2021/10/07 04:53:24;;;;;;;1.52;1.10;;;;;;;10.25;100.00;102276.56;6272232;28;20045;-81
2021/10/07 04:56:25;;;;;;;1.13;1.02;;;;;;;10.14;100.00;102282.09;6272654;28;20045;-80
2021/10/07 04:59:26;;;;;;;1.38;1.10;;;;;;;10.06;100.00;102284.06;6272251;28;20503;-80
2021/10/07 05:02:28;;;;;;;1.90;1.25;;;;;;;10.10;100.00;102283.06;6272332;28;20479;-81
2021/10/07 05:05:29;;;;;;;2.35;1.58;;;;;;;10.14;100.00;102285.56;6272265;28;20052;-80
2021/10/07 05:08:32;;;;;;;2.58;1.38;;;;;;;10.16;100.00;102282.91;6272417;28;20076;-80
2021/10/07 05:11:33;;;;;;;2.28;1.35;;;;;;;10.19;100.00;102288.06;6272518;28;20519;-80
2021/10/07 05:14:34;;;;;;;1.88;1.25;;;;;;;10.18;100.00;102302.13;6263110;28;20049;-80
2021/10/07 05:17:36;;;;;;;1.83;1.48;;;;;;;10.16;100.00;102310.03;6260489;28;20518;-80
2021/10/07 05:20:38;;;;;;;1.90;1.13;;;;;;;10.10;100.00;102301.47;6259229;28;20050;-80
2021/10/07 05:23:40;;;;;;;2.92;1.40;;;;;;;10.04;100.00;102302.50;6261621;28;20045;-81
2021/10/07 05:26:42;;;;;;;2.35;1.05;;;;;;;10.00;100.00;102313.13;6249566;28;20053;-80
2021/10/07 05:29:43;;;;;;;6.85;1.55;;;;;;;10.05;100.00;102319.09;6247601;28;20050;-80
2021/10/07 05:32:44;;;;;;;1.75;1.30;;;;;;;10.09;100.00;102321.63;6246819;28;20052;-80
2021/10/07 05:35:46;;;;;;;1.20;1.00;;;;;;;10.11;100.00;102326.81;6246977;28;20522;-80
2021/10/07 05:38:49;;;;;;;2.28;1.40;;;;;;;10.11;100.00;102321.56;6246962;28;20137;-80
2021/10/07 05:41:50;;;;;;;2.00;1.20;;;;;;;10.12;100.00;102328.53;6247301;28;20053;-80
2021/10/07 05:44:51;;;;;;;2.38;1.85;;;;;;;10.13;100.00;102327.66;6247091;28;20416;-81
2021/10/07 05:47:53;;;;;;;1.33;1.02;;;;;;;10.11;100.00;102339.94;6247282;28;20041;-80
2021/10/07 05:50:55;;;;;;;2.25;1.40;;;;;;;10.10;100.00;102349.59;6246704;28;20057;-79
2021/10/07 05:53:57;;;;;;;2.80;1.40;;;;;;;10.12;100.00;102354.81;6246883;28;20049;-81
2021/10/07 05:56:59;;;;;;;1.80;1.20;;;;;;;10.12;100.00;102352.19;6247499;28;20045;-80
2021/10/07 06:00:00;;;;;;;2.40;1.30;;;;;;;10.13;100.00;102361.81;6247355;28;20052;-80
2021/10/07 06:03:02;;;;;;;1.88;1.02;;;;;;;10.16;100.00;102361.72;6247404;28;20496;-80
2021/10/07 06:06:03;;;;;;;5.38;1.85;;;;;;;10.12;100.00;102365.31;6248027;28;20045;-80
2021/10/07 06:09:07;;;;;;;1.65;1.13;;;;;;;10.15;100.00;102370.50;6247433;28;20064;-80
2021/10/07 06:12:09;;;;;;;2.08;1.33;;;;;;;10.19;100.00;102368.66;6247068;28;20194;-80
2021/10/07 06:15:10;;;;;;;8.98;1.38;;;;;;;10.21;100.00;102367.69;6246960;28;20390;-79
2021/10/07 06:18:12;;;;;;;1.35;1.25;;;;;;;10.26;100.00;102376.34;6247067;28;20607;-81
2021/10/07 06:21:13;;;;;;;2.65;1.42;;;;;;;10.30;100.00;102387.66;6247239;28;20061;-81
2021/10/07 06:24:16;;;;;;;1.75;1.10;;;;;;;10.27;100.00;102380.75;6249192;28;20061;-80
2021/10/07 06:27:18;;;;;;;1.55;1.25;;;;;;;10.26;100.00;102384.25;6251852;28;20049;-80
2021/10/07 06:30:20;;;;;;;4.57;1.65;;;;;;;10.24;100.00;102388.69;6251348;28;20045;-80
2021/10/07 06:33:21;;;;;;;2.00;1.25;;;;;;;10.22;100.00;102400.97;6252480;28;20049;-81
2021/10/07 06:36:23;;;;;;;2.20;1.42;;;;;;;10.28;100.00;102406.09;6251507;28;20519;-80
2021/10/07 06:39:25;;;;;;;2.08;1.50;;;;;;;10.35;100.00;102405.03;6251559;28;20052;-81
2021/10/07 06:42:27;;;;;;;2.40;1.77;;;;;;;10.42;100.00;102405.75;6251224;28;20060;-80
2021/10/07 06:45:29;;;;;;;3.15;2.10;;;;;;;10.37;100.00;102411.13;6251270;28;20061;-80
2021/10/07 06:48:33;;;;;;;2.20;1.45;;;;;;;10.36;100.00;102425.16;6251120;28;20049;-80
2021/10/07 06:51:36;;;;;;;3.28;1.80;;;;;;;10.40;100.00;102423.31;6250945;28;20585;-80
2021/10/07 06:54:39;;;;;;;2.17;1.63;;;;;;;10.46;100.00;102431.06;6250911;28;20534;-79
2021/10/07 06:57:41;;;;;;;3.22;1.50;;;;;;;10.49;100.00;102441.50;6250865;28;20045;-80
2021/10/07 07:00:43;;;;;;;2.47;1.40;;;;;;;10.53;100.00;102448.38;6251214;28;20057;-80
2021/10/07 07:03:44;;;;;;;2.17;1.50;;;;;;;10.58;100.00;102446.50;6250775;28;20049;-81
2021/10/07 07:06:46;;;;;;;2.22;1.63;;;;;;;10.66;100.00;102447.16;6250643;28;20684;-81
2021/10/07 07:09:49;;;;;;;3.50;1.60;;;;;;;10.77;100.00;102449.53;6251875;28;20049;-81
2021/10/07 07:12:51;;;;;;;2.00;1.50;;;;;;;10.88;100.00;102457.09;6258002;28;20049;-81
2021/10/07 07:15:53;;;;;;;2.65;1.80;;;;;;;10.96;100.00;102456.91;6252866;28;20041;-81
2021/10/07 07:18:54;;;;;;;3.45;1.48;;;;;;;11.03;100.00;102455.81;6255630;28;20054;-81
2021/10/07 07:21:55;;;;;;;3.90;1.67;;;;;;;11.13;100.00;102466.06;6256501;28;20140;-82
2021/10/07 07:24:58;;;;;;;2.28;1.67;;;;;;;11.16;100.00;102470.34;6254817;28;20045;-80
2021/10/07 07:27:59;;;;;;;2.42;1.95;;;;;;;11.20;100.00;102461.47;6255368;28;20049;-82
2021/10/07 07:31:01;;;;;;;2.50;1.48;;;;;;;11.21;100.00;102463.19;6257187;28;20051;-81
2021/10/07 07:34:02;;;;;;;3.08;1.33;;;;;;;11.23;100.00;102463.16;6256170;28;20060;-79
2021/10/07 07:37:04;;;;;;;3.35;1.65;;;;;;;11.26;100.00;102455.16;6256532;28;20045;-81
2021/10/07 07:40:08;;;;;;;2.92;1.80;;;;;;;11.30;100.00;102462.94;6255176;28;20053;-80
2021/10/07 07:43:10;;;;;;;2.28;1.67;;;;;;;11.22;100.00;102461.41;6277400;28;20052;-81
2021/10/07 07:46:12;;;;;;;3.33;1.33;;;;;;;11.22;100.00;102457.03;6280973;28;20076;-80
2021/10/07 07:49:13;;;;;;;3.28;1.92;;;;;;;11.27;100.00;102467.44;6279330;28;20052;-81
2021/10/07 07:52:15;;;;;;;2.10;1.50;;;;;;;11.29;100.00;102473.50;6280585;28;20060;-78
2021/10/07 07:55:18;;;;;;;3.58;1.73;;;;;;;11.30;100.00;102476.09;6280212;28;20064;-78
2021/10/07 07:58:20;;;;;;;2.58;1.48;;;;;;;11.33;100.00;102475.16;6280011;28;20049;-79
2021/10/07 08:01:22;;;;;;;3.00;2.00;;;;;;;11.35;100.00;102479.44;6276578;28;20040;-79
2021/10/07 08:04:23;;;;;;;2.83;1.80;;;;;;;11.36;100.00;102478.56;6276574;28;20055;-79
2021/10/07 08:07:24;;;;;;;2.88;1.60;;;;;;;11.46;100.00;102480.94;6281219;28;20409;-81
2021/10/07 08:10:27;;;;;;;2.13;1.90;;;;;;;11.37;100.00;102475.03;6281926;28;20057;-79
2021/10/07 08:13:29;;;;;;;3.15;1.60;;;;;;;11.37;100.00;102480.28;6276041;28;20045;-81
2021/10/07 08:16:31;;;;;;;2.28;1.35;;;;;;;11.38;100.00;102481.13;6271898;28;20396;-81
2021/10/07 08:19:33;;;;;;;4.60;2.13;;;;;;;11.39;100.00;102482.84;6273782;28;20421;-80
2021/10/07 08:22:34;;;;;;;2.72;1.63;;;;;;;11.42;100.00;102488.91;6274448;28;20052;-76
2021/10/07 08:25:37;;;;;;;3.08;1.73;;;;;;;11.42;100.00;102491.53;6273479;28;20056;-78
2021/10/07 08:28:39;;;;;;;3.45;1.67;;;;;;;11.45;100.00;102485.34;6273665;28;20111;-78
2021/10/07 08:31:40;;;;;;;2.47;1.60;;;;;;;11.51;100.00;102503.56;6273520;28;20518;-79
2021/10/07 08:34:41;;;;;;;2.50;1.55;;;;;;;11.55;100.00;102494.69;6273350;28;20044;-79
2021/10/07 08:37:43;;;;;;;4.30;2.22;;;;;;;11.59;100.00;102496.31;6273052;28;20041;-78
2021/10/07 08:40:46;;;;;;;3.35;2.17;;;;;;;11.63;100.00;102494.47;6272545;28;20055;-78
2021/10/07 08:43:50;;;;;;;3.55;2.13;;;;;;;11.72;100.00;102501.19;6273212;28;20048;-78
2021/10/07 08:46:53;;;;;;;3.20;2.25;;;;;;;11.77;100.00;102513.34;6272901;28;20057;-79
2021/10/07 08:49:55;;;;;;;4.20;2.05;;;;;;;11.84;100.00;102517.53;6276959;28;20136;-79
2021/10/07 08:52:56;;;;;;;3.20;2.03;;;;;;;11.87;100.00;102514.81;6275039;28;20484;-79
2021/10/07 08:56:01;;;;;;;4.07;1.90;;;;;;;11.97;100.00;102520.66;6275141;28;20419;-79
2021/10/07 08:59:03;;;;;;;2.45;1.95;;;;;;;11.97;100.00;102520.66;6272362;28;20053;-77
2021/10/07 09:02:07;;;;;;;3.03;2.20;;;;;;;12.03;100.00;102509.94;6272350;28;20057;-78
2021/10/07 09:05:12;;;;;;;2.30;1.50;;;;;;;12.05;100.00;102510.75;6272399;28;20057;-78
2021/10/07 09:08:15;;;;;;;2.03;1.40;;;;;;;12.15;100.00;102513.97;6272736;28;20145;-78
2021/10/07 09:11:29;;;;;;;1.88;1.55;;;;;;;12.27;100.00;102518.84;6273524;28;20053;-79
2021/10/07 09:14:31;;;;;;;2.38;1.52;;;;;;;12.36;100.00;102515.06;6273386;28;20048;-80
2021/10/07 09:17:33;;;;;;;3.67;2.05;;;;;;;12.42;100.00;102513.06;6273067;28;20492;-80
2021/10/07 09:20:36;;;;;;;3.55;2.08;;;;;;;12.51;100.00;102511.91;6274503;28;20048;-79
2021/10/07 09:23:38;;;;;;;2.97;1.67;;;;;;;12.61;100.00;102518.59;6273609;28;20045;-79
2021/10/07 09:26:43;;;;;;;1.73;1.33;;;;;;;12.64;100.00;102510.59;6274682;28;20103;-81
2021/10/07 09:29:49;;;;;;;2.45;1.88;;;;;;;12.83;100.00;102513.47;6274188;28;20048;-79
2021/10/07 09:32:52;;;;;;;1.80;1.17;;;;;;;12.81;100.00;102522.34;6273271;28;20049;-78
2021/10/07 09:36:09;;;;;;;2.55;1.90;;;;;;;12.85;100.00;102519.56;6271995;28;20419;-77
2021/10/07 09:39:11;;;;;;;2.15;1.50;;;;;;;12.93;100.00;102519.28;6271726;28;20045;-78
2021/10/07 09:42:18;;;;;;;3.78;2.03;;;;;;;12.94;100.00;102521.88;6273284;28;20049;-79
2021/10/07 09:45:21;;;;;;;3.17;1.90;;;;;;;12.99;100.00;102519.09;6273039;28;20522;-78
2021/10/07 09:48:38;;;;;;;2.92;1.70;;;;;;;13.11;100.00;102526.56;6273144;28;20053;-79
2021/10/07 09:51:41;;;;;;;2.38;1.85;;;;;;;13.25;100.00;102525.22;6274125;28;20060;-79
2021/10/07 09:54:43;;;;;;;2.25;1.45;;;;;;;13.46;100.00;102532.38;6272236;28;20539;-75
2021/10/07 09:57:55;;;;;;;3.63;2.10;;;;;;;13.52;100.00;102534.78;6272089;28;20049;-79
2021/10/07 10:00:58;;;;;;;2.38;1.65;;;;;;;13.60;100.00;102538.00;6276245;28;20051;-78
2021/10/07 10:04:00;;;;;;;1.75;1.42;;;;;;;13.63;100.00;102535.25;6268021;28;20057;-78
2021/10/07 10:07:02;;;;;;;2.92;1.67;;;;;;;13.69;100.00;102542.09;6276722;28;20068;-77
2021/10/07 10:10:03;;;;;;;3.08;2.00;;;;;;;13.82;100.00;102538.06;6276690;28;20055;-79
2021/10/07 10:13:07;;;;;;;3.45;2.25;;;;;;;13.85;100.00;102547.63;6278045;28;20052;-81
2021/10/07 10:16:10;;;;;;;1.40;1.10;;;;;;;13.81;100.00;102544.28;6277615;28;20053;-78
2021/10/07 10:19:12;;;;;;;3.65;2.10;;;;;;;13.78;100.00;102544.38;6276077;28;20056;-78
2021/10/07 10:22:14;;;;;;;1.85;1.15;;;;;;;13.70;100.00;102549.09;6276497;28;20052;-78
2021/10/07 10:25:15;;;;;;;1.48;1.10;;;;;;;13.61;100.00;102552.94;6276443;28;20049;-79
2021/10/07 10:28:29;;;;;;;1.25;1.02;;;;;;;13.59;100.00;102551.28;6276786;28;20053;-80
2021/10/07 10:31:33;;;;;;;2.92;1.90;;;;;;;13.67;100.00;102546.56;6276969;28;20048;-79
2021/10/07 10:34:39;;;;;;;5.10;1.70;;;;;;;13.73;100.00;102556.91;6276022;28;20052;-80
2021/10/07 10:37:56;;;;;;;1.80;1.08;;;;;;;13.85;100.00;102561.75;6266114;28;20049;-80
2021/10/07 10:41:09;;;;;;;1.50;1.25;;;;;;;13.77;100.00;102561.16;6252690;28;20054;-80
2021/10/07 10:44:30;;;;;;;1.88;1.17;;;;;;;13.77;100.00;102558.53;6252297;28;20046;-80
2021/10/07 10:47:33;;;;;;;2.92;1.63;;;;;;;13.84;100.00;102553.84;6252591;28;20045;-80
2021/10/07 10:50:34;;;;;;;1.88;1.30;;;;;;;13.95;100.00;102557.81;6252041;28;20072;-80
2021/10/07 10:53:48;;;;;;;1.85;1.42;;;;;;;14.01;98.72;102550.56;6251590;28;20408;-79
2021/10/07 10:56:58;;;;;;;1.77;1.30;;;;;;;14.03;95.93;102557.50;6267610;28;20053;-78
2021/10/07 11:00:21;;;;;;;1.63;1.10;;;;;;;14.51;91.53;102559.16;6275453;28;20569;-79
2021/10/07 11:03:26;;;;;;;1.55;1.13;;;;;;;14.96;89.00;102563.47;6251819;28;20049;-78
2021/10/07 11:06:28;;;;;;;1.42;1.05;;;;;;;15.16;86.67;102574.06;6250887;28;20054;-79
2021/10/07 11:09:58;;;;;;;1.27;1.10;;;;;;;15.01;85.30;102573.88;6250396;28;20660;-78
2021/10/07 11:13:00;;;;;;;1.48;1.20;;;;;;;15.18;88.00;102576.66;6250926;28;20053;-78
2021/10/07 11:16:05;;;;;;;2.25;1.48;;;;;;;15.29;87.29;102577.03;6250336;28;20404;-78
2021/10/07 11:19:07;;;;;;;1.40;1.13;;;;;;;15.03;84.20;102586.09;6249750;28;20072;-78
2021/10/07 11:22:08;;;;;;;1.55;0.80;;;;;;;14.99;84.62;102589.81;6250491;28;20049;-78
2021/10/07 11:25:10;;;;;;;1.42;1.02;;;;;;;14.97;83.25;102579.28;6250027;28;20056;-78
2021/10/07 11:28:11;;;;;;;1.08;0.88;;;;;;;15.18;84.38;102581.94;6250576;28;20508;-78
2021/10/07 11:31:16;;;;;;;0.82;0.70;;;;;;;15.30;84.11;102581.41;6250933;28;20068;-77
2021/10/07 11:34:17;;;;;;;2.97;0.85;;;;;;;15.20;84.71;102580.94;6273640;28;20056;-78
2021/10/07 11:37:20;;;;;;;1.50;1.17;;;;;;;15.26;84.83;102593.06;6274042;28;20052;-78
2021/10/07 11:40:24;;;;;;;0.98;0.70;;;;;;;15.51;86.87;102587.53;6274584;28;20053;-77
2021/10/07 11:43:28;;;;;;;1.58;0.80;;;;;;;15.41;83.43;102576.50;6274660;28;20140;-76
2021/10/07 11:46:31;;;;;;;1.55;0.98;;;;;;;15.41;84.30;102586.25;6274513;28;20417;-78
2021/10/07 11:49:32;;;;;;;4.35;1.13;;;;;;;15.29;86.39;102589.41;6274530;28;20049;-77
2021/10/07 11:52:34;;;;;;;1.75;0.93;;;;;;;15.12;83.47;102591.00;6274270;28;20144;-78
2021/10/07 11:55:38;;;;;;;1.80;0.80;;;;;;;14.97;81.95;102592.53;6275287;28;20049;-79
2021/10/07 11:58:40;;;;;;;1.40;1.00;;;;;;;14.86;82.27;102581.53;6276409;28;20048;-79
2021/10/07 12:01:43;;;;;;;1.95;1.10;;;;;;;14.81;84.43;102587.94;6275156;28;20044;-79
2021/10/07 12:04:44;;;;;;;1.27;0.73;;;;;;;15.08;85.98;102586.78;6273541;28;20419;-80
2021/10/07 12:08:04;;;;;;;0.80;0.80;;;;;;;15.20;87.80;102594.19;6274304;28;20488;-77
2021/10/07 12:11:07;;;;;;;1.70;1.35;;;;;;;15.21;87.12;102582.69;6274019;28;20459;-78
2021/10/07 12:14:10;;;;;;;1.17;0.70;;;;;;;15.15;85.45;102584.72;6274077;28;20059;-77
2021/10/07 12:17:13;;;;;;;1.08;0.82;;;;;;;15.08;84.14;102580.59;6273565;28;20427;-76
2021/10/07 12:20:14;;;;;;;0.63;0.57;;;;;;;15.03;87.21;102582.59;6273834;28;20495;-78
2021/10/07 12:23:16;;;;;;;2.38;0.85;;;;;;;14.92;86.69;102586.56;6273164;28;20416;-79
2021/10/07 12:26:32;;;;;;;1.38;0.93;;;;;;;14.89;85.92;102583.19;6273844;28;20079;-78
2021/10/07 12:29:35;;;;;;;1.98;1.13;;;;;;;14.89;85.06;102583.19;6274246;28;20052;-77
2021/10/07 12:32:38;;;;;;;2.08;1.30;;;;;;;14.92;87.60;102583.06;6273946;28;20435;-76
2021/10/07 12:35:39;;;;;;;4.57;2.42;;;;;;;14.97;89.34;102583.72;6272881;28;20049;-78
2021/10/07 12:38:49;;;;;;;1.00;0.85;;;;;;;15.05;86.91;102580.75;6273716;28;20045;-78
2021/10/07 12:41:54;;;;;;;1.27;1.00;;;;;;;15.07;83.83;102587.69;6274002;28;20041;-76
2021/10/07 12:44:58;;;;;;;1.13;1.00;;;;;;;15.00;84.20;102586.25;6273946;28;20049;-79
2021/10/07 12:48:01;;;;;;;1.05;0.90;;;;;;;15.00;86.46;102580.09;6275552;28;20507;-81
2021/10/07 12:51:10;;;;;;;1.80;1.08;;;;;;;14.95;86.47;102582.94;6278080;28;20056;-81
2021/10/07 12:54:13;;;;;;;1.43;0.70;;;;;;;14.99;88.80;102584.53;6278176;28;20091;-81
2021/10/07 12:57:34;;;;;;;2.22;1.30;;;;;;;15.03;88.66;102586.09;6277619;28;20119;-81
2021/10/07 13:00:36;;;;;;;1.42;0.90;;;;;;;15.02;89.23;102586.16;6279818;28;20053;-78
2021/10/07 13:03:38;;;;;;;1.25;0.70;;;;;;;15.01;89.20;102579.16;6265172;28;20056;-79
2021/10/07 13:06:40;;;;;;;1.58;1.05;;;;;;;15.00;88.72;102585.38;6265013;28;20045;-79
2021/10/07 13:09:42;;;;;;;0.95;0.90;;;;;;;14.93;86.82;102587.41;6250590;28;20428;-78
2021/10/07 13:12:44;;;;;;;2.08;0.80;;;;;;;14.92;86.31;102594.50;6273450;28;20045;-81
2021/10/07 13:15:47;;;;;;;0.93;0.75;;;;;;;14.95;86.29;102581.16;6277665;28;20484;-78
2021/10/07 13:18:50;;;;;;;2.13;0.80;;;;;;;15.05;87.53;102588.69;6274876;28;20052;-78
2021/10/07 13:21:51;;;;;;;2.55;0.73;;;;;;;15.02;88.16;102592.31;6274370;28;20095;-79
2021/10/07 13:24:55;;;;;;;1.00;0.85;;;;;;;14.98;87.07;102601.31;6274125;28;20049;-79
2021/10/07 13:27:57;;;;;;;1.02;0.90;;;;;;;15.01;86.54;102595.03;6276002;28;20053;-78
2021/10/07 13:30:59;;;;;;;0.63;0.63;;;;;;;15.01;87.32;102600.34;6276573;28;20053;-78
2021/10/07 13:34:01;;;;;;;0.45;0.45;;;;;;;14.96;88.26;102609.34;6276977;28;20053;-78
2021/10/07 13:37:03;;;;;;;1.13;0.90;;;;;;;14.94;89.22;102610.31;6266065;28;20053;-79
2021/10/07 13:40:06;;;;;;;0.77;0.73;;;;;;;14.86;88.43;102613.31;6252747;28;20045;-78
2021/10/07 13:43:08;;;;;;;1.45;0.70;;;;;;;14.85;87.45;102616.00;6266261;28;20068;-78
2021/10/07 13:46:09;;;;;;;0.50;0.50;;;;;;;14.77;88.52;102610.19;6281230;28;20056;-78
2021/10/07 13:49:12;;;;;;;1.00;0.65;;;;;;;14.74;88.38;102610.28;6280905;28;20060;-79
2021/10/07 13:52:13;;;;;;;3.15;0.82;;;;;;;14.74;89.39;102619.09;6279773;28;20056;-78
2021/10/07 13:55:15;;;;;;;1.23;0.77;;;;;;;14.74;90.09;102626.16;6281578;28;20590;-79
2021/10/07 13:58:17;;;;;;;1.20;0.55;;;;;;;14.75;91.54;102618.16;6280543;28;20041;-77
2021/10/07 14:01:18;;;;;;;0.77;0.52;;;;;;;14.73;92.00;102622.66;6282255;28;20056;-78
2021/10/07 14:04:21;;;;;;;0.82;0.60;;;;;;;14.70;92.15;102623.63;6280947;28;20044;-78
2021/10/07 14:07:22;;;;;;;1.45;0.80;;;;;;;14.69;94.50;102613.97;6282490;28;20056;-78